Time;durP1;ratioP1;P1;durP2;ratioP2;P2;SDS_P1;SDS_P2;PMS_P1;PMS_P2;Temp;Humidity;BMP_temperature;BMP_pressure;BME280_temperature;BME280_humidity;BME280_pressure;Samples;Min_cycle;Max_cycle;Signal;HPM_P1;HPM_P2
2023/10/05 00:02:08;;;;;;;12.15;2.05;;;;;;;14.37;100.00;102403.81;5247694;28;20036;-70
2023/10/05 00:04:41;;;;;;;8.10;2.10;;;;;;;14.36;100.00;102411.06;5257584;28;20017;-70
2023/10/05 00:07:17;;;;;;;14.93;2.83;;;;;;;14.35;100.00;102412.06;5252178;28;20028;-70
2023/10/05 00:09:49;;;;;;;11.93;2.08;;;;;;;14.25;100.00;102409.41;5258011;28;20020;-70
2023/10/05 00:12:22;;;;;;;15.00;2.30;;;;;;;14.28;100.00;102415.53;5248549;28;20036;-70
2023/10/05 00:17:38;;;;;;;8.68;1.92;;;;;;;14.23;100.00;102407.91;5257515;28;20556;-70
2023/10/05 00:20:14;;;;;;;12.45;2.08;;;;;;;14.19;100.00;102406.50;5253940;28;20029;-70
2023/10/05 00:22:44;;;;;;;16.17;2.67;;;;;;;14.14;100.00;102409.66;5254645;28;20039;-70
2023/10/05 00:25:17;;;;;;;9.68;2.42;;;;;;;14.05;100.00;102415.94;5255502;28;20016;-70
2023/10/05 00:27:52;;;;;;;11.45;2.40;;;;;;;14.06;100.00;102414.97;5249461;28;20077;-70
2023/10/05 00:30:23;;;;;;;12.13;2.58;;;;;;;14.02;100.00;102420.81;5253143;28;20027;-71
2023/10/05 00:32:56;;;;;;;11.15;2.28;;;;;;;14.02;100.00;102413.56;5257943;28;20024;-70
2023/10/05 00:35:28;;;;;;;10.93;2.22;;;;;;;13.94;100.00;102426.94;5253839;28;20024;-71
2023/10/05 00:38:11;;;;;;;12.82;2.70;;;;;;;13.98;100.00;102422.97;5254038;28;20034;-70
2023/10/05 00:40:54;;;;;;;15.77;2.80;;;;;;;14.03;100.00;102415.25;5254445;28;20545;-70
2023/10/05 00:43:25;;;;;;;9.98;2.28;;;;;;;14.00;100.00;102419.09;5253043;28;20027;-70
2023/10/05 00:45:58;;;;;;;9.32;2.20;;;;;;;13.99;100.00;102414.69;5258734;28;20020;-70
2023/10/05 00:48:34;;;;;;;9.95;2.50;;;;;;;14.02;100.00;102418.97;5252340;28;20042;-71
2023/10/05 00:51:12;;;;;;;11.98;2.53;;;;;;;14.02;100.00;102415.41;5253292;28;20024;-70
2023/10/05 00:53:43;;;;;;;9.35;2.45;;;;;;;14.00;100.00;102412.84;5253940;28;20028;-70
2023/10/05 00:56:15;;;;;;;8.30;2.22;;;;;;;13.97;100.00;102410.47;5254464;28;20028;-70
2023/10/05 00:58:50;;;;;;;11.23;1.90;;;;;;;13.94;100.00;102419.69;5252841;28;20110;-70
2023/10/05 01:01:34;;;;;;;8.52;2.30;;;;;;;13.90;100.00;102412.91;5252835;28;20031;-70
2023/10/05 01:06:55;;;;;;;11.00;2.13;;;;;;;13.84;100.00;102426.16;5253439;28;20031;-70
2023/10/05 01:12:22;;;;;;;13.90;2.28;;;;;;;13.71;100.00;102423.81;5255013;28;20028;-70
2023/10/05 01:14:52;;;;;;;9.20;2.60;;;;;;;13.76;100.00;102415.28;5246683;28;20411;-70
2023/10/05 01:17:28;;;;;;;7.50;2.15;;;;;;;13.74;100.00;102410.84;5252647;28;20039;-70
2023/10/05 01:22:49;;;;;;;16.45;3.08;;;;;;;13.72;100.00;102410.16;5253106;28;20035;-70
2023/10/05 01:25:20;;;;;;;10.63;3.10;;;;;;;13.67;100.00;102407.06;5248476;28;20028;-70
2023/10/05 01:27:52;;;;;;;10.05;2.25;;;;;;;13.63;100.00;102416.44;5255196;28;20118;-70
2023/10/05 01:30:23;;;;;;;9.10;2.50;;;;;;;13.58;100.00;102413.34;5254247;28;20035;-70
2023/10/05 01:32:54;;;;;;;10.63;2.65;;;;;;;13.56;100.00;102412.66;5252943;28;20396;-70
2023/10/05 01:35:24;;;;;;;13.70;2.88;;;;;;;13.51;100.00;102417.63;5255404;28;20386;-70
2023/10/05 01:37:58;;;;;;;13.95;2.80;;;;;;;13.46;100.00;102414.53;5254495;28;20020;-70
2023/10/05 01:40:30;;;;;;;11.40;2.30;;;;;;;13.42;100.00;102413.97;5252855;28;20052;-70
2023/10/05 01:43:01;;;;;;;6.57;2.60;;;;;;;13.36;100.00;102419.97;5250611;28;20069;-70
2023/10/05 01:45:33;;;;;;;9.65;2.67;;;;;;;13.32;100.00;102415.84;5252816;28;20436;-70
2023/10/05 01:48:12;;;;;;;9.18;2.25;;;;;;;13.29;100.00;102412.59;5256437;28;20027;-70
2023/10/05 01:50:44;;;;;;;6.22;2.10;;;;;;;13.25;100.00;102411.16;5255161;28;20020;-70
2023/10/05 01:53:17;;;;;;;14.55;2.80;;;;;;;13.21;100.00;102416.88;5255588;28;20089;-70
2023/10/05 01:55:50;;;;;;;14.40;3.25;;;;;;;13.18;100.00;102406.34;5252099;28;20524;-70
2023/10/05 01:58:28;;;;;;;8.98;2.70;;;;;;;13.15;100.00;102408.47;5251756;28;20025;-70
2023/10/05 02:00:58;;;;;;;9.98;2.15;;;;;;;13.15;100.00;102406.66;5250362;28;20028;-70
2023/10/05 02:03:29;;;;;;;15.15;2.63;;;;;;;13.21;100.00;102406.09;5250075;28;20256;-70
2023/10/05 02:06:04;;;;;;;10.45;2.58;;;;;;;13.23;100.00;102402.41;5257002;28;20074;-70
2023/10/05 02:08:36;;;;;;;9.10;2.47;;;;;;;13.33;100.00;102404.06;5250592;28;20020;-70
2023/10/05 02:11:07;;;;;;;10.43;2.40;;;;;;;13.38;100.00;102411.72;5251239;28;20217;-70
2023/10/05 02:13:37;;;;;;;14.00;3.50;;;;;;;13.45;100.00;102404.72;5254082;28;20032;-71
2023/10/05 02:16:16;;;;;;;10.68;1.98;;;;;;;13.53;100.00;102399.47;5250269;28;20031;-71
2023/10/05 02:18:48;;;;;;;7.80;2.75;;;;;;;13.58;100.00;102402.56;5255784;28;20024;-72
2023/10/05 02:21:29;;;;;;;14.85;2.67;;;;;;;13.62;100.00;102403.13;5249317;28;20401;-70
2023/10/05 02:24:17;;;;;;;11.30;2.70;;;;;;;13.66;100.00;102402.69;5246360;28;20015;-72
2023/10/05 02:29:32;;;;;;;12.57;2.28;;;;;;;13.72;100.00;102393.97;5249716;28;20028;-71
2023/10/05 02:32:09;;;;;;;16.55;3.20;;;;;;;13.70;100.00;102398.69;5253462;28;20022;-72
2023/10/05 02:34:44;;;;;;;9.07;2.75;;;;;;;13.73;100.00;102395.69;5254334;28;20047;-71
2023/10/05 02:37:19;;;;;;;13.63;3.28;;;;;;;13.73;100.00;102400.22;5250321;28;20370;-70
2023/10/05 02:39:50;;;;;;;9.70;2.47;;;;;;;13.77;100.00;102400.78;5254779;28;20435;-70
2023/10/05 02:42:24;;;;;;;11.88;2.60;;;;;;;13.75;100.00;102395.50;5250058;28;20029;-71
2023/10/05 02:44:56;;;;;;;13.70;3.00;;;;;;;13.75;100.00;102398.22;5255066;28;20055;-71
2023/10/05 02:47:26;;;;;;;14.18;2.65;;;;;;;13.76;100.00;102399.94;5252430;28;20020;-72
2023/10/05 02:50:00;;;;;;;6.70;2.25;;;;;;;13.77;100.00;102401.63;5253246;28;20065;-72
2023/10/05 02:52:33;;;;;;;23.90;3.05;;;;;;;13.80;100.00;102404.00;5252886;28;20086;-72
2023/10/05 02:55:07;;;;;;;13.15;2.78;;;;;;;13.83;100.00;102394.78;5252754;28;20107;-72
2023/10/05 02:57:39;;;;;;;10.05;3.50;;;;;;;13.83;100.00;102400.19;5250132;28;20104;-71
2023/10/05 03:00:12;;;;;;;14.02;2.92;;;;;;;13.87;100.00;102399.72;5254442;28;20460;-71
2023/10/05 03:02:49;;;;;;;9.82;2.78;;;;;;;13.84;100.00;102400.00;5251708;28;20040;-72
2023/10/05 03:05:19;;;;;;;10.80;2.20;;;;;;;13.89;100.00;102389.63;5251889;28;20093;-72
2023/10/05 03:07:51;;;;;;;8.75;2.38;;;;;;;13.90;100.00;102390.47;5243977;28;20021;-72
2023/10/05 03:10:23;;;;;;;13.20;2.63;;;;;;;13.91;100.00;102395.75;5248992;28;20020;-71
2023/10/05 03:12:54;;;;;;;10.15;2.58;;;;;;;13.90;100.00;102396.72;5247811;28;20032;-70
2023/10/05 03:15:27;;;;;;;16.00;3.38;;;;;;;13.91;100.00;102397.59;5244735;28;20017;-70
2023/10/05 03:17:58;;;;;;;10.93;2.30;;;;;;;13.92;100.00;102396.59;5255083;28;20556;-70
2023/10/05 03:20:29;;;;;;;11.77;2.50;;;;;;;13.92;100.00;102404.69;5248451;28;20107;-70
2023/10/05 03:23:03;;;;;;;9.60;2.47;;;;;;;13.90;100.00;102399.41;5251248;28;20031;-70
2023/10/05 03:25:34;;;;;;;6.45;2.65;;;;;;;13.84;100.00;102397.31;5252722;28;20103;-70
2023/10/05 03:28:05;;;;;;;12.13;2.90;;;;;;;13.91;100.00;102393.03;5251271;28;20575;-70
2023/10/05 03:30:36;;;;;;;12.95;3.10;;;;;;;13.84;100.00;102400.00;5253786;28;20032;-70
2023/10/05 03:33:06;;;;;;;10.23;2.70;;;;;;;13.84;100.00;102399.19;5248512;28;20066;-70
2023/10/05 03:35:37;;;;;;;13.30;2.55;;;;;;;13.76;100.00;102393.69;5253814;28;20020;-70
2023/10/05 03:38:08;;;;;;;13.35;3.10;;;;;;;13.73;100.00;102386.75;5255433;28;20019;-70
2023/10/05 03:40:43;;;;;;;19.35;2.78;;;;;;;13.69;100.00;102388.03;5253384;28;20021;-70
2023/10/05 03:43:13;;;;;;;8.82;2.63;;;;;;;13.65;100.00;102395.56;5255154;28;20058;-70
2023/10/05 03:45:44;;;;;;;16.60;3.40;;;;;;;13.61;100.00;102402.28;5256064;28;20410;-71
2023/10/05 03:48:14;;;;;;;14.35;3.00;;;;;;;13.56;100.00;102395.63;5252604;28;20023;-70
2023/10/05 03:50:45;;;;;;;12.20;2.72;;;;;;;13.47;100.00;102386.56;5254804;28;20130;-70
2023/10/05 03:53:16;;;;;;;13.18;3.33;;;;;;;13.51;100.00;102385.28;5256175;28;20027;-70
2023/10/05 03:55:47;;;;;;;19.15;2.90;;;;;;;13.43;100.00;102385.16;5253624;28;20107;-72
2023/10/05 03:58:17;;;;;;;10.10;2.45;;;;;;;13.41;100.00;102392.56;5253312;28;20101;-71
2023/10/05 04:00:49;;;;;;;10.75;2.92;;;;;;;13.35;100.00;102390.44;5257912;28;20422;-72
2023/10/05 04:03:24;;;;;;;13.90;3.22;;;;;;;13.30;100.00;102384.63;5252618;28;20142;-72
2023/10/05 04:05:54;;;;;;;10.90;2.78;;;;;;;13.29;100.00;102381.09;5258148;28;20024;-71
2023/10/05 04:08:27;;;;;;;17.13;3.53;;;;;;;13.29;100.00;102386.47;5249644;28;20017;-72
2023/10/05 04:10:59;;;;;;;20.60;2.90;;;;;;;13.28;100.00;102384.78;5253117;28;20393;-72
2023/10/05 04:13:32;;;;;;;19.75;3.50;;;;;;;13.28;100.00;102383.94;5255497;28;20103;-72
2023/10/05 04:16:07;;;;;;;14.13;2.95;;;;;;;13.29;100.00;102391.88;5250532;28;20020;-72
2023/10/05 04:18:38;;;;;;;9.90;3.65;;;;;;;13.27;100.00;102391.19;5249428;28;20513;-71
2023/10/05 04:21:10;;;;;;;9.02;2.90;;;;;;;13.26;100.00;102383.25;5245196;28;20028;-71
2023/10/05 04:23:45;;;;;;;14.13;3.17;;;;;;;13.30;100.00;102380.09;5247648;28;20025;-71
2023/10/05 04:26:17;;;;;;;19.13;3.15;;;;;;;13.27;100.00;102375.00;5247239;28;20024;-71
2023/10/05 04:28:57;;;;;;;16.95;3.15;;;;;;;13.34;100.00;102375.25;5243451;28;20013;-71
2023/10/05 04:31:27;;;;;;;11.63;2.90;;;;;;;13.36;100.00;102367.91;5246637;28;20013;-71
2023/10/05 04:34:00;;;;;;;10.13;2.70;;;;;;;13.38;100.00;102374.81;5250036;28;20069;-72
2023/10/05 04:36:31;;;;;;;15.60;2.97;;;;;;;13.39;100.00;102372.97;5240431;28;20063;-72
2023/10/05 04:39:04;;;;;;;16.08;2.92;;;;;;;13.37;100.00;102367.75;5252669;28;20103;-73
2023/10/05 04:41:36;;;;;;;10.55;2.72;;;;;;;13.43;100.00;102374.38;5245313;28;20389;-71
2023/10/05 04:44:07;;;;;;;16.20;3.38;;;;;;;13.47;100.00;102367.69;5249766;28;20128;-71
2023/10/05 04:46:49;;;;;;;20.95;3.70;;;;;;;13.48;100.00;102374.78;5245258;28;20529;-72
2023/10/05 04:49:20;;;;;;;13.18;2.80;;;;;;;13.47;100.00;102373.09;5248630;28;20020;-71
2023/10/05 04:51:51;;;;;;;11.38;3.58;;;;;;;13.42;100.00;102362.75;5249902;28;20424;-71
2023/10/05 04:54:25;;;;;;;14.57;3.15;;;;;;;13.46;100.00;102371.41;5245533;28;20078;-71
2023/10/05 04:57:07;;;;;;;17.10;3.28;;;;;;;13.48;100.00;102372.94;5248892;28;20047;-71
2023/10/05 04:59:48;;;;;;;14.18;3.30;;;;;;;13.41;100.00;102381.78;5248355;28;20020;-71
2023/10/05 05:02:21;;;;;;;12.07;2.70;;;;;;;13.47;100.00;102382.03;5249708;28;20027;-71
2023/10/05 05:04:52;;;;;;;10.10;3.10;;;;;;;13.46;100.00;102387.56;5248507;28;20024;-71
2023/10/05 05:07:23;;;;;;;18.27;3.47;;;;;;;13.44;100.00;102386.84;5252957;28;20012;-71
2023/10/05 05:09:55;;;;;;;8.82;3.20;;;;;;;13.43;100.00;102395.94;5248801;28;20028;-71
2023/10/05 05:12:28;;;;;;;11.93;3.72;;;;;;;13.34;100.00;102394.13;5248963;28;20158;-72
2023/10/05 05:14:59;;;;;;;15.05;3.03;;;;;;;13.38;100.00;102395.53;5242921;28;20020;-71
2023/10/05 05:17:29;;;;;;;11.68;3.10;;;;;;;13.27;100.00;102393.88;5249274;28;20031;-71
2023/10/05 05:20:10;;;;;;;15.15;3.47;;;;;;;13.32;100.00;102398.81;5255052;28;20469;-71
2023/10/05 05:22:46;;;;;;;16.48;3.10;;;;;;;13.28;100.00;102400.97;5245391;28;20107;-71
2023/10/05 05:25:19;;;;;;;13.05;3.05;;;;;;;13.22;100.00;102385.38;5244083;28;20020;-71
2023/10/05 05:27:50;;;;;;;11.65;2.88;;;;;;;13.19;100.00;102391.84;5249168;28;20020;-71
2023/10/05 05:30:29;;;;;;;15.50;2.97;;;;;;;13.19;100.00;102386.47;5244965;28;20069;-71
2023/10/05 05:32:59;;;;;;;14.68;3.47;;;;;;;13.18;100.00;102397.41;5246048;28;20392;-71
2023/10/05 05:35:30;;;;;;;13.40;2.97;;;;;;;13.15;100.00;102381.53;5249670;28;20343;-72
2023/10/05 05:38:02;;;;;;;20.75;4.60;;;;;;;13.20;100.00;102379.22;5244265;28;20111;-71
2023/10/05 05:40:36;;;;;;;10.35;3.22;;;;;;;13.15;100.00;102377.00;5249168;28;20025;-71
2023/10/05 05:43:08;;;;;;;7.43;3.10;;;;;;;13.17;100.00;102377.69;5246169;28;20486;-71
2023/10/05 05:45:42;;;;;;;16.52;3.63;;;;;;;13.15;100.00;102377.00;5245075;28;20267;-71
2023/10/05 05:48:14;;;;;;;14.35;3.47;;;;;;;13.14;100.00;102382.53;5248725;28;20021;-71
2023/10/05 05:50:48;;;;;;;5.50;2.78;;;;;;;13.14;100.00;102383.38;5241044;28;20029;-71
2023/10/05 05:53:19;;;;;;;11.77;3.10;;;;;;;13.11;100.00;102383.69;5243394;28;20016;-72
2023/10/05 05:55:54;;;;;;;12.68;3.85;;;;;;;13.11;100.00;102386.38;5245293;28;20036;-71
2023/10/05 05:58:25;;;;;;;15.90;3.50;;;;;;;13.08;100.00;102394.72;5246016;28;20025;-73
2023/10/05 06:00:57;;;;;;;14.07;4.45;;;;;;;13.08;100.00;102399.28;5246218;28;20096;-71
2023/10/05 06:03:28;;;;;;;16.35;3.97;;;;;;;13.04;100.00;102405.94;5240398;28;20546;-71
2023/10/05 06:06:00;;;;;;;10.32;3.28;;;;;;;13.07;100.00;102403.81;5244142;28;20264;-70
2023/10/05 06:08:31;;;;;;;15.07;3.83;;;;;;;13.06;100.00;102401.28;5244582;28;20016;-70
2023/10/05 06:11:08;;;;;;;16.23;3.60;;;;;;;13.03;100.00;102398.84;5249637;28;20452;-71
2023/10/05 06:13:38;;;;;;;12.70;3.72;;;;;;;13.03;100.00;102399.72;5246818;28;20028;-72
2023/10/05 06:16:09;;;;;;;11.52;3.40;;;;;;;13.09;100.00;102404.50;5247749;28;20026;-71
2023/10/05 06:18:40;;;;;;;11.90;3.28;;;;;;;13.08;100.00;102405.50;5243626;28;20010;-72
2023/10/05 06:21:11;;;;;;;15.93;3.47;;;;;;;13.09;100.00;102407.19;5244138;28;20031;-72
2023/10/05 06:23:42;;;;;;;10.75;3.00;;;;;;;13.09;100.00;102412.59;5244138;28;20062;-72
2023/10/05 06:26:12;;;;;;;14.18;3.88;;;;;;;13.13;100.00;102413.16;5243967;28;20143;-72
2023/10/05 06:28:44;;;;;;;15.40;3.88;;;;;;;13.16;100.00;102410.19;5247782;28;20086;-72
2023/10/05 06:31:15;;;;;;;14.70;3.25;;;;;;;13.18;100.00;102419.81;5246382;28;20025;-71
2023/10/05 06:33:46;;;;;;;17.85;3.78;;;;;;;13.27;100.00;102420.81;5244192;28;20078;-71
2023/10/05 06:36:16;;;;;;;12.82;5.28;;;;;;;13.32;100.00;102423.94;5242759;28;20274;-71
2023/10/05 06:38:47;;;;;;;10.85;3.53;;;;;;;13.38;100.00;102422.50;5247396;28;20106;-72
2023/10/05 06:41:22;;;;;;;15.93;3.55;;;;;;;13.43;100.00;102417.50;5244227;28;20047;-71
2023/10/05 06:43:52;;;;;;;21.88;3.88;;;;;;;13.53;100.00;102423.72;5247108;28;20029;-72
2023/10/05 06:46:24;;;;;;;13.20;3.53;;;;;;;13.59;100.00;102427.66;5244667;28;20097;-71
2023/10/05 06:48:55;;;;;;;11.82;3.65;;;;;;;13.59;100.00;102419.59;5243611;28;20020;-71
2023/10/05 06:51:26;;;;;;;17.67;4.10;;;;;;;13.64;100.00;102430.78;5241887;28;20016;-72
2023/10/05 06:53:57;;;;;;;19.38;4.70;;;;;;;13.67;100.00;102427.78;5244754;28;20020;-71
2023/10/05 06:56:28;;;;;;;15.13;3.75;;;;;;;13.76;100.00;102437.69;5240686;28;20807;-72
2023/10/05 06:58:58;;;;;;;15.80;3.92;;;;;;;13.81;100.00;102437.25;5244025;28;20028;-72
2023/10/05 07:01:29;;;;;;;16.02;4.72;;;;;;;13.89;100.00;102440.88;5244302;28;20031;-72
2023/10/05 07:04:01;;;;;;;17.60;4.25;;;;;;;13.96;100.00;102451.94;5244599;28;20032;-72
2023/10/05 07:06:32;;;;;;;21.60;4.35;;;;;;;13.97;100.00;102451.78;5250571;28;20015;-72
2023/10/05 07:09:03;;;;;;;18.50;3.75;;;;;;;13.99;100.00;102460.56;5249686;28;20358;-72
2023/10/05 07:11:33;;;;;;;18.40;3.88;;;;;;;14.00;100.00;102456.03;5248687;28;20058;-72
2023/10/05 07:14:04;;;;;;;11.05;3.40;;;;;;;14.00;100.00;102459.56;5251447;28;20126;-72
2023/10/05 07:16:34;;;;;;;19.73;4.70;;;;;;;14.03;100.00;102458.44;5248913;28;20028;-72
2023/10/05 07:19:08;;;;;;;11.82;3.70;;;;;;;14.11;100.00;102463.09;5243576;28;20035;-72
2023/10/05 07:21:38;;;;;;;13.85;4.10;;;;;;;14.14;100.00;102471.72;5248662;28;20025;-71
2023/10/05 07:24:09;;;;;;;17.27;4.85;;;;;;;14.20;100.00;102472.97;5248600;28;20029;-72
2023/10/05 07:26:39;;;;;;;20.52;4.38;;;;;;;14.22;100.00;102471.81;5246283;28;20031;-72
2023/10/05 07:29:10;;;;;;;11.00;3.50;;;;;;;14.22;100.00;102473.69;5247418;28;20069;-72
2023/10/05 07:31:43;;;;;;;20.90;4.82;;;;;;;14.28;100.00;102478.47;5250221;28;20025;-72
2023/10/05 07:34:15;;;;;;;12.20;4.07;;;;;;;14.34;100.00;102480.56;5249037;28;20445;-72
2023/10/05 07:36:45;;;;;;;10.98;4.20;;;;;;;14.38;100.00;102486.50;5248632;28;20481;-72
2023/10/05 07:39:18;;;;;;;21.05;4.68;;;;;;;14.44;100.00;102489.44;5246938;28;20032;-71
2023/10/05 07:41:49;;;;;;;20.83;5.55;;;;;;;14.53;100.00;102495.81;5249047;28;20262;-72
2023/10/05 07:44:20;;;;;;;21.45;5.55;;;;;;;14.58;100.00;102490.81;5251671;28;20028;-72
2023/10/05 07:46:51;;;;;;;20.38;5.80;;;;;;;14.64;100.00;102495.59;5247469;28;20035;-72
2023/10/05 07:49:21;;;;;;;23.70;6.15;;;;;;;14.65;100.00;102500.00;5247550;28;20107;-71
2023/10/05 07:51:52;;;;;;;14.95;6.13;;;;;;;14.74;100.00;102506.34;5250278;28;20499;-72
2023/10/05 07:54:22;;;;;;;15.77;5.68;;;;;;;14.79;100.00;102506.72;5246712;28;20032;-71
2023/10/05 07:56:53;;;;;;;22.25;5.85;;;;;;;14.83;100.00;102510.81;5246175;28;20028;-71
2023/10/05 07:59:23;;;;;;;20.77;5.15;;;;;;;14.82;100.00;102506.44;5247961;28;20043;-71
2023/10/05 08:01:55;;;;;;;15.27;4.80;;;;;;;14.83;100.00;102512.69;5250485;28;20202;-71
2023/10/05 08:04:25;;;;;;;18.67;5.43;;;;;;;14.89;100.00;102509.34;5249093;28;20386;-71
2023/10/05 08:06:56;;;;;;;17.58;4.45;;;;;;;14.91;100.00;102523.56;5250817;28;20020;-71
2023/10/05 08:09:27;;;;;;;20.83;5.40;;;;;;;14.86;100.00;102518.63;5249039;28;20470;-71
2023/10/05 08:11:57;;;;;;;17.95;5.15;;;;;;;14.87;100.00;102522.19;5254625;28;20032;-71
2023/10/05 08:14:28;;;;;;;27.02;5.15;;;;;;;14.87;100.00;102535.69;5247646;28;20033;-70
2023/10/05 08:16:59;;;;;;;18.55;4.07;;;;;;;14.84;100.00;102522.47;5253541;28;20231;-71
2023/10/05 08:19:30;;;;;;;21.08;5.25;;;;;;;14.88;100.00;102524.72;5249429;28;20024;-71
2023/10/05 08:22:00;;;;;;;20.08;5.13;;;;;;;14.92;100.00;102520.72;5249291;28;20024;-71
2023/10/05 08:24:31;;;;;;;18.60;4.82;;;;;;;14.94;100.00;102520.56;5247770;28;20024;-71
2023/10/05 08:27:02;;;;;;;12.68;4.03;;;;;;;14.99;100.00;102526.34;5250077;28;20110;-71
2023/10/05 08:29:34;;;;;;;17.73;4.68;;;;;;;14.96;100.00;102542.84;5247841;28;20032;-71
2023/10/05 08:32:06;;;;;;;15.93;4.00;;;;;;;15.03;100.00;102538.56;5250585;28;20512;-72
2023/10/05 08:34:40;;;;;;;17.85;4.55;;;;;;;15.11;100.00;102545.88;5253125;28;20532;-71
2023/10/05 08:37:13;;;;;;;16.48;4.30;;;;;;;15.09;100.00;102545.19;5246325;28;20074;-71
2023/10/05 08:39:43;;;;;;;24.50;4.47;;;;;;;15.17;100.00;102548.81;5250710;28;20516;-72
2023/10/05 08:42:16;;;;;;;18.25;4.00;;;;;;;15.26;100.00;102547.03;5247867;28;20020;-72
2023/10/05 08:44:48;;;;;;;15.48;4.85;;;;;;;15.35;100.00;102554.19;5250689;28;20032;-72
2023/10/05 08:47:21;;;;;;;19.70;4.95;;;;;;;15.39;100.00;102552.03;5249136;28;20040;-71
2023/10/05 08:49:52;;;;;;;23.63;4.50;;;;;;;15.44;100.00;102547.84;5251186;28;20035;-71
2023/10/05 08:52:22;;;;;;;18.52;4.35;;;;;;;15.54;100.00;102550.47;5247774;28;20024;-71
2023/10/05 08:54:53;;;;;;;15.30;4.55;;;;;;;15.48;100.00;102551.09;5251844;28;20068;-71
2023/10/05 08:57:24;;;;;;;13.50;4.43;;;;;;;15.57;100.00;102562.84;5247544;28;20507;-72
2023/10/05 08:59:55;;;;;;;18.50;4.55;;;;;;;15.58;100.00;102556.44;5246937;28;20455;-71
2023/10/05 09:02:25;;;;;;;20.23;4.72;;;;;;;15.57;100.00;102561.00;5250074;28;20035;-71
2023/10/05 09:05:00;;;;;;;18.70;4.43;;;;;;;15.62;100.00;102568.63;5254186;28;20564;-72
2023/10/05 09:07:35;;;;;;;24.70;4.68;;;;;;;15.48;100.00;102567.34;5243142;28;20032;-72
2023/10/05 09:10:08;;;;;;;;;;;;;;;15.65;100.00;102576.44;5248576;28;20025;-71
2023/10/05 09:12:41;;;;;;;18.80;5.07;;;;;;;15.68;100.00;102573.44;5250451;28;20003;-72
2023/10/05 09:17:57;;;;;;;28.80;6.38;;;;;;;15.71;100.00;102573.09;5244020;28;20037;-71
2023/10/05 09:20:30;;;;;;;13.93;4.45;;;;;;;15.75;100.00;102579.91;5244470;28;20032;-71
2023/10/05 09:23:04;;;;;;;18.63;4.07;;;;;;;15.75;100.00;102588.03;5249661;28;20024;-71
2023/10/05 09:25:38;;;;;;;21.38;4.18;;;;;;;15.77;100.00;102602.25;5250689;28;20481;-71
2023/10/05 09:28:13;;;;;;;20.80;4.07;;;;;;;15.74;100.00;102608.81;5249496;28;20100;-71
2023/10/05 09:30:55;;;;;;;16.98;3.45;;;;;;;15.73;100.00;102609.84;5250834;28;20052;-71
2023/10/05 09:33:27;;;;;;;15.73;4.00;;;;;;;15.72;100.00;102618.97;5245668;28;20055;-72
2023/10/05 09:36:06;;;;;;;16.65;4.15;;;;;;;15.73;100.00;102614.41;5248394;28;20016;-71
2023/10/05 09:38:40;;;;;;;16.75;5.05;;;;;;;15.70;100.00;102607.44;5251449;28;20105;-71
2023/10/05 09:41:14;;;;;;;18.08;4.03;;;;;;;15.67;100.00;102598.81;5247549;28;20028;-70
2023/10/05 09:43:52;;;;;;;;;;;;;;;15.68;100.00;102604.06;5249533;28;20055;-71
2023/10/05 09:46:27;;;;;;;13.15;3.95;;;;;;;15.64;100.00;102599.94;5248216;28;20297;-72
2023/10/05 09:49:01;;;;;;;18.50;4.65;;;;;;;15.70;100.00;102601.19;5251341;28;20028;-71
2023/10/05 09:51:35;;;;;;;18.58;4.53;;;;;;;15.77;100.00;102599.56;5251746;28;20520;-70
2023/10/05 09:54:10;;;;;;;14.20;4.45;;;;;;;15.80;100.00;102593.81;5246940;28;20111;-71
2023/10/05 09:56:41;;;;;;;12.90;4.38;;;;;;;15.82;100.00;102580.16;5245736;28;20029;-71
2023/10/05 09:59:15;;;;;;;17.67;4.00;;;;;;;15.87;100.00;102594.03;5245364;28;20098;-71
2023/10/05 10:01:48;;;;;;;12.85;3.58;;;;;;;15.97;100.00;102586.66;5248079;28;20032;-71
2023/10/05 10:04:36;;;;;;;12.23;3.72;;;;;;;16.06;100.00;102582.97;5245463;28;20101;-72
2023/10/05 10:07:15;;;;;;;17.13;3.88;;;;;;;16.08;100.00;102585.53;5243373;28;20081;-71
2023/10/05 10:09:47;;;;;;;15.65;4.20;;;;;;;16.18;100.00;102580.88;5247893;28;20035;-72
2023/10/05 10:12:25;;;;;;;23.77;4.47;;;;;;;16.07;100.00;102579.28;5247611;28;20466;-71
2023/10/05 10:14:58;;;;;;;15.02;3.75;;;;;;;16.20;100.00;102568.84;5245077;28;20301;-71
2023/10/05 10:17:30;;;;;;;13.07;3.85;;;;;;;16.26;100.00;102567.34;5249570;28;20390;-71
2023/10/05 10:20:17;;;;;;;13.73;3.53;;;;;;;16.36;100.00;102559.09;5244924;28;20490;-71
2023/10/05 10:22:53;;;;;;;20.92;3.40;;;;;;;16.43;100.00;102560.16;5246412;28;20063;-72
2023/10/05 10:25:30;;;;;;;15.07;3.83;;;;;;;16.49;100.00;102560.34;5246382;28;20024;-71
2023/10/05 10:28:19;;;;;;;24.38;4.40;;;;;;;16.68;100.00;102563.81;5233159;28;20454;-72
2023/10/05 10:31:14;;;;;;;17.52;3.67;;;;;;;16.82;100.00;102566.75;5245964;28;20123;-71
2023/10/05 10:33:50;;;;;;;16.20;3.65;;;;;;;16.69;100.00;102573.63;5244088;28;20055;-69
2023/10/05 10:36:46;;;;;;;11.02;3.13;;;;;;;16.86;100.00;102571.81;5243059;28;20032;-69
2023/10/05 10:39:31;;;;;;;12.27;3.75;;;;;;;16.98;100.00;102584.06;5240556;28;20066;-70
2023/10/05 10:42:04;;;;;;;22.63;4.35;;;;;;;17.14;100.00;102578.66;5241817;28;20043;-70
2023/10/05 10:44:57;;;;;;;13.82;4.32;;;;;;;17.35;100.00;102579.03;5244525;28;20029;-71
2023/10/05 10:47:27;;;;;;;16.60;3.17;;;;;;;17.47;100.00;102573.25;5245324;28;20024;-70
2023/10/05 10:50:10;;;;;;;10.50;3.03;;;;;;;17.59;100.00;102572.75;5241766;28;20074;-70
2023/10/05 10:52:43;;;;;;;13.23;3.38;;;;;;;17.85;100.00;102577.16;5245145;28;20059;-71
2023/10/05 10:55:16;;;;;;;12.18;3.25;;;;;;;17.99;100.00;102581.88;5240606;28;20035;-71
2023/10/05 10:57:47;;;;;;;14.00;3.78;;;;;;;18.04;100.00;102575.94;5243888;28;20028;-70
2023/10/05 11:03:17;;;;;;;16.85;3.42;;;;;;;17.96;100.00;102584.09;5241810;28;20107;-70
2023/10/05 11:05:51;;;;;;;13.57;3.00;;;;;;;18.00;100.00;102583.56;5246638;28;20603;-71
2023/10/05 11:08:21;;;;;;;10.90;2.65;;;;;;;18.10;100.00;102576.06;5244072;28;20025;-71
2023/10/05 11:10:58;;;;;;;9.75;3.35;;;;;;;18.11;100.00;102585.06;5247243;28;20405;-70
2023/10/05 11:13:30;;;;;;;10.32;2.50;;;;;;;18.34;100.00;102585.19;5239953;28;20021;-70
2023/10/05 11:16:01;;;;;;;11.82;3.38;;;;;;;18.53;100.00;102592.06;5240735;28;20058;-71
2023/10/05 11:18:34;;;;;;;7.28;2.67;;;;;;;18.69;100.00;102589.31;5242613;28;20134;-71
2023/10/05 11:21:18;;;;;;;21.02;2.80;;;;;;;18.81;100.00;102574.28;5243872;28;20044;-72
2023/10/05 11:23:57;;;;;;;14.35;3.30;;;;;;;18.94;100.00;102578.28;5244024;28;20027;-72
2023/10/05 11:26:28;;;;;;;8.85;2.50;;;;;;;19.03;100.00;102580.78;5247259;28;20119;-71
2023/10/05 11:28:59;;;;;;;12.85;3.05;;;;;;;19.12;100.00;102582.41;5246177;28;20032;-71
2023/10/05 11:31:34;;;;;;;9.85;2.70;;;;;;;19.06;100.00;102585.84;5244524;28;20366;-71
2023/10/05 11:34:09;;;;;;;13.30;2.80;;;;;;;19.01;100.00;102579.25;5244613;28;20134;-72
2023/10/05 11:36:42;;;;;;;10.50;2.65;;;;;;;19.05;100.00;102572.44;5236781;28;20099;-72
2023/10/05 11:39:28;;;;;;;14.52;2.63;;;;;;;18.95;100.00;102574.53;5241736;28;20369;-71
2023/10/05 11:41:59;;;;;;;8.40;2.50;;;;;;;19.13;100.00;102572.38;5241214;28;20496;-71
2023/10/05 11:44:29;;;;;;;13.38;2.63;;;;;;;19.09;100.00;102571.06;5247051;28;20017;-72
2023/10/05 11:47:00;;;;;;;12.60;2.50;;;;;;;19.10;100.00;102580.91;5247977;28;20028;-71
2023/10/05 11:49:30;;;;;;;8.15;2.30;;;;;;;19.18;100.00;102578.13;5242936;28;20022;-71
2023/10/05 11:52:01;;;;;;;10.52;2.35;;;;;;;19.18;100.00;102572.69;5247315;28;20024;-71
2023/10/05 11:54:31;;;;;;;7.90;2.20;;;;;;;19.26;100.00;102572.59;5244342;28;20031;-72
2023/10/05 11:57:05;;;;;;;12.35;2.75;;;;;;;19.17;100.00;102560.09;5248206;28;20028;-71
2023/10/05 11:59:35;;;;;;;9.38;3.00;;;;;;;19.10;100.00;102562.69;5250665;28;20033;-71